Bookmark and Share
Track history (hours):
 

Muria

Last reported at 2012-May-17 21:28 UTC. Time now 2014-Apr-20 11:41 UTC.
Position N 36°32' W 003°32'.
Warning: this ship's position is years out of date!

Length 27 m; draft 3.8 m.

MMSI: 235009241.

NotesDate/timePositionNaut miles runAvg speedWind from/ knotsBaromVisibWave heightAir tempDewpointWater temp
2012-May-17 21:28N 36°32' W 003°32'9 9.2
2012-May-17 20:27N 36°32' W 003°44'8 9.2
2012-May-17 19:33N 36°31' W 003°54'9 9.3
2012-May-17 18:33N 36°30' W 004°06'19 9.3
2012-May-17 16:29N 36°28' W 004°30'42 8.6
2012-May-17 11:33N 36°13' W 005°19'0 0.0
2012-May-16 08:33N 36°13' W 005°19'0 0.0
2012-May-16 06:27N 36°13' W 005°19'0 0.0
2012-May-16 05:30N 36°13' W 005°19'0 0.0
2012-May-16 04:30N 36°13' W 005°19'0 0.0
2012-May-16 03:30N 36°13' W 005°19'0 0.0
2012-May-16 01:33N 36°13' W 005°19'0 0.0
2012-May-15 22:30N 36°13' W 005°19'0 0.0
2012-May-15 21:33N 36°13' W 005°19'0 0.0
2012-May-15 20:27N 36°13' W 005°19'0 0.0
2012-May-15 19:30N 36°13' W 005°19'0 0.0
2012-May-15 18:33N 36°13' W 005°19'0 0.0
2012-May-15 16:33N 36°13' W 005°19'0 0.0
2012-May-15 14:27N 36°13' W 005°19'0 0.0
2012-May-15 13:33N 36°13' W 005°19'0 0.0
2012-May-15 12:27N 36°13' W 005°19'0 0.0
2012-May-15 11:27N 36°13' W 005°19'0 0.0
2012-May-15 10:33N 36°13' W 005°19'0 0.0
2012-May-15 09:30N 36°13' W 005°19'0 0.0
2012-May-15 08:30N 36°13' W 005°19'0 0.0
2012-May-15 07:33N 36°13' W 005°19'0 0.0
2012-May-15 06:33N 36°13' W 005°19'0 0.0
2012-May-15 05:27N 36°13' W 005°19'0 0.0
2012-May-15 04:33N 36°13' W 005°19'0 0.0
2012-May-15 01:33N 36°13' W 005°19'0 0.0
2012-May-15 00:30N 36°13' W 005°19'0 0.0
2012-May-14 23:27N 36°13' W 005°19'0 0.0
2012-May-14 22:30N 36°13' W 005°19'0 0.0
2012-May-14 21:27N 36°13' W 005°19'0 0.0
2012-May-14 20:33N 36°13' W 005°19'0 0.0
2012-May-14 19:33N 36°13' W 005°19'0 0.0
2012-May-14 18:33N 36°13' W 005°19'0 0.0
2012-May-14 17:33N 36°13' W 005°19'0 0.0
2012-May-14 16:33N 36°13' W 005°19'0 0.0
2012-May-14 15:33N 36°13' W 005°19'0 0.0
2012-May-14 14:33N 36°13' W 005°19'0 0.0
2012-May-14 13:33N 36°13' W 005°19'0 0.0
2012-May-14 12:33N 36°13' W 005°19'5 4.9
2012-May-14 11:32N 36°08' W 005°19'9 9.7
2012-May-14 10:36N 35°59' W 005°23'10 9.9
2012-May-14 09:33N 35°56' W 005°35'7 7.1
2012-May-14 08:33N 35°54' W 005°44'7 6.9
2012-May-14 07:33N 35°53' W 005°52'  
2012-May-09 05:32N 37°24' W 010°08'6 6.4
2012-May-09 04:35N 37°30' W 010°08'7 6.3
2012-May-09 03:33N 37°37' W 010°09'7 6.4
2012-May-09 02:31N 37°43' W 010°09'12 6.1
2012-May-09 00:32N 37°55' W 010°08'13 6.3
2012-May-08 22:33N 38°08' W 010°07'12 6.3
2012-May-08 20:40N 38°20' W 010°07'  

Dump ship's entire track history

sailing weather and tide predictions

Muria — ZQWF8 — position and weather